Time;durP1;ratioP1;P1;durP2;ratioP2;P2;SDS_P1;SDS_P2;PMS_P1;PMS_P2;Temp;Humidity;BMP_temperature;BMP_pressure;BME280_temperature;BME280_humidity;BME280_pressure;Samples;Min_cycle;Max_cycle;Signal;HPM_P1;HPM_P2
2024/01/06 00:02:07;;;;;;;19.63;12.38;;;;;;;9.10;70.40;98046.41;5071873;28;20266;-58
2024/01/06 00:04:32;;;;;;;20.40;12.05;;;;;;;9.03;71.38;98034.84;5071430;28;20173;-58
2024/01/06 00:06:58;;;;;;;19.63;10.30;;;;;;;9.28;71.57;98068.41;5071690;28;20173;-58
2024/01/06 00:09:23;;;;;;;16.13;10.20;;;;;;;8.94;71.55;98022.59;5071746;28;20173;-58
2024/01/06 00:11:49;;;;;;;15.55;10.75;;;;;;;9.40;72.27;98108.03;5071665;28;20179;-57
2024/01/06 00:14:14;;;;;;;16.42;9.68;;;;;;;9.00;71.87;98027.34;5071432;28;20181;-58
2024/01/06 00:16:40;;;;;;;17.48;9.57;;;;;;;9.35;71.95;98100.59;5071033;28;20248;-58
2024/01/06 00:19:05;;;;;;;13.43;8.50;;;;;;;9.07;72.08;98051.78;5071905;28;20203;-58
2024/01/06 00:21:30;;;;;;;12.10;8.20;;;;;;;9.39;71.92;98089.09;5071592;28;20234;-58
2024/01/06 00:23:56;;;;;;;12.88;8.23;;;;;;;9.42;70.71;98104.41;5071642;28;20207;-58
2024/01/06 00:26:22;;;;;;;13.68;8.00;;;;;;;9.39;70.72;98114.94;5071501;28;20226;-58
2024/01/06 00:28:49;;;;;;;16.58;8.98;;;;;;;8.92;70.46;98036.53;5071467;28;20204;-58
2024/01/06 00:31:16;;;;;;;11.32;7.45;;;;;;;9.44;70.52;98118.03;5071467;28;20184;-57
2024/01/06 00:33:43;;;;;;;11.23;7.38;;;;;;;9.14;70.35;98058.16;5048881;28;20190;-58
2024/01/06 00:36:08;;;;;;;13.35;8.73;;;;;;;9.11;70.63;98052.41;5049078;28;20192;-58
2024/01/06 00:38:35;;;;;;;17.63;11.25;;;;;;;9.38;71.56;98107.31;5048940;28;20205;-58
2024/01/06 00:41:00;;;;;;;16.15;8.50;;;;;;;8.90;71.78;98021.13;5048907;28;20182;-58
2024/01/06 00:43:26;;;;;;;13.38;8.43;;;;;;;9.40;71.80;98119.19;5048896;28;20194;-58
2024/01/06 00:45:51;;;;;;;12.50;7.85;;;;;;;9.10;71.63;98061.06;5049196;28;20572;-58
2024/01/06 00:48:17;;;;;;;14.23;7.03;;;;;;;9.47;71.21;98102.34;5048818;28;20223;-58
2024/01/06 00:50:42;;;;;;;8.40;5.55;;;;;;;9.42;70.39;98104.41;5048834;28;20182;-58
2024/01/06 00:53:08;;;;;;;6.57;4.93;;;;;;;9.30;69.68;98078.59;4969860;28;20659;-58
2024/01/06 00:55:33;;;;;;;8.25;5.20;;;;;;;9.31;69.39;98091.41;4950665;28;20181;-58
2024/01/06 00:57:58;;;;;;;16.50;8.50;;;;;;;9.31;69.85;98088.81;4950749;28;20412;-58
2024/01/06 01:00:24;;;;;;;11.27;8.38;;;;;;;9.35;71.17;98087.69;4950746;28;20735;-58
2024/01/06 01:02:49;;;;;;;9.73;6.65;;;;;;;9.39;71.08;98086.53;4950634;28;20197;-57
2024/01/06 01:05:15;;;;;;;7.72;5.85;;;;;;;9.40;69.54;98083.03;4950744;28;20280;-58
2024/01/06 01:07:40;;;;;;;5.55;4.07;;;;;;;8.83;66.99;97996.69;4912453;29;20247;-58
2024/01/06 01:10:06;;;;;;;5.30;4.40;;;;;;;9.34;65.47;98085.22;4912674;29;20186;-58
2024/01/06 01:12:31;;;;;;;5.88;4.82;;;;;;;9.32;67.09;98082.72;4912281;29;20237;-58
2024/01/06 01:14:57;;;;;;;4.85;3.70;;;;;;;9.27;67.64;98074.47;4912386;29;20190;-57
2024/01/06 01:17:22;;;;;;;3.50;3.20;;;;;;;9.35;67.03;98067.03;4912427;29;20214;-58
2024/01/06 01:19:48;;;;;;;3.55;3.10;;;;;;;9.24;66.13;98041.13;4912513;29;20183;-58
2024/01/06 01:22:13;;;;;;;2.67;2.38;;;;;;;9.27;64.81;98040.91;4912474;29;20640;-58
2024/01/06 01:24:39;;;;;;;3.67;2.65;;;;;;;9.31;65.13;98049.28;4951346;28;20283;-58
2024/01/06 01:27:04;;;;;;;5.95;3.33;;;;;;;9.29;64.83;98041.66;4970570;28;20184;-58
2024/01/06 01:29:30;;;;;;;9.90;5.78;;;;;;;9.41;66.10;98061.44;4973622;28;20184;-58
2024/01/06 01:31:55;;;;;;;8.70;5.45;;;;;;;9.40;65.45;98054.63;4987509;28;20670;-58
2024/01/06 01:34:21;;;;;;;8.07;5.40;;;;;;;9.27;66.12;98047.84;4954015;29;20189;-58
2024/01/06 01:36:46;;;;;;;6.28;4.78;;;;;;;8.78;66.85;97982.44;4954114;28;20590;-58
2024/01/06 01:39:11;;;;;;;5.05;3.63;;;;;;;8.95;66.07;98021.66;4967884;28;20243;-57
2024/01/06 01:41:37;;;;;;;3.92;3.30;;;;;;;9.22;63.30;98081.72;4973406;28;20188;-58
2024/01/06 01:44:02;;;;;;;4.45;3.10;;;;;;;9.07;64.71;98054.38;4978732;28;20184;-58
2024/01/06 01:46:29;;;;;;;3.97;3.22;;;;;;;9.15;65.46;98067.56;4973190;28;20227;-58
2024/01/06 01:48:55;;;;;;;5.85;3.10;;;;;;;9.23;66.31;98083.38;4972958;28;20667;-58
2024/01/06 01:51:21;;;;;;;4.07;2.78;;;;;;;9.27;66.17;98079.63;4973064;28;20272;-58
2024/01/06 01:53:47;;;;;;;2.60;2.40;;;;;;;9.20;66.09;98065.50;4973090;28;20200;-57
2024/01/06 01:56:13;;;;;;;2.20;2.10;;;;;;;9.30;65.10;98078.59;4972990;28;20191;-58
2024/01/06 01:58:40;;;;;;;3.15;1.85;;;;;;;9.26;64.84;98069.44;4973094;28;20219;-58
2024/01/06 02:01:06;;;;;;;1.70;1.60;;;;;;;8.85;64.56;97994.81;4974643;28;20200;-58
2024/01/06 02:03:32;;;;;;;3.63;2.15;;;;;;;9.26;64.58;98066.84;4991502;28;20210;-58
2024/01/06 02:05:58;;;;;;;5.60;2.35;;;;;;;8.82;64.86;97991.63;5007231;28;20199;-58
2024/01/06 02:08:23;;;;;;;3.15;2.38;;;;;;;9.24;64.43;98048.88;5011878;28;20207;-57
2024/01/06 02:10:48;;;;;;;3.90;2.78;;;;;;;8.61;64.30;97956.97;5012245;28;20224;-58
2024/01/06 02:13:14;;;;;;;2.83;2.13;;;;;;;9.12;64.57;98047.13;5011873;28;20183;-58
2024/01/06 02:15:40;;;;;;;2.78;2.53;;;;;;;9.10;64.93;98040.44;5026699;28;20701;-58
2024/01/06 02:18:05;;;;;;;10.02;5.45;;;;;;;9.02;65.01;98017.72;5031714;28;20209;-58
2024/01/06 02:20:31;;;;;;;4.00;3.60;;;;;;;8.78;63.71;97959.22;5031569;28;20187;-58
2024/01/06 02:22:59;;;;;;;6.25;3.47;;;;;;;8.63;64.31;97960.28;5031495;28;20665;-58
2024/01/06 02:25:24;;;;;;;4.72;3.65;;;;;;;8.71;65.76;97981.22;5031433;28;20182;-57
2024/01/06 02:27:50;;;;;;;4.50;3.30;;;;;;;8.80;66.25;97990.94;5036249;28;20591;-57
2024/01/06 02:30:15;;;;;;;2.97;2.78;;;;;;;8.57;66.19;97961.50;5074012;28;20255;-57
2024/01/06 02:32:41;;;;;;;4.55;3.05;;;;;;;9.06;66.21;98041.56;5073930;28;20172;-57
2024/01/06 02:35:06;;;;;;;4.97;3.00;;;;;;;8.53;66.24;97946.38;5073873;28;20192;-57
2024/01/06 02:37:32;;;;;;;4.18;3.00;;;;;;;9.05;66.31;98045.06;5073265;28;20188;-58
2024/01/06 02:39:57;;;;;;;4.05;3.20;;;;;;;8.99;66.89;98028.28;5072518;28;20181;-58
2024/01/06 02:42:24;;;;;;;3.63;2.58;;;;;;;8.87;67.25;98026.53;5073489;28;20268;-57
2024/01/06 02:44:49;;;;;;;3.10;2.83;;;;;;;9.02;67.43;98043.53;5073380;28;20662;-57
2024/01/06 02:47:14;;;;;;;3.72;3.00;;;;;;;8.43;67.33;97953.91;5073257;28;20177;-58
2024/01/06 02:49:40;;;;;;;3.35;3.00;;;;;;;8.62;68.16;97987.81;5073274;28;20662;-58
2024/01/06 02:52:05;;;;;;;3.85;2.90;;;;;;;8.81;68.23;98026.94;5073000;28;20666;-58
2024/01/06 02:54:31;;;;;;;3.75;2.72;;;;;;;8.32;69.00;97946.06;5073142;28;20177;-58
2024/01/06 02:56:56;;;;;;;2.95;2.65;;;;;;;8.85;69.19;98041.25;5073194;28;20248;-58
2024/01/06 02:59:22;;;;;;;5.18;4.40;;;;;;;8.90;68.85;98044.34;5073106;28;20188;-58
2024/01/06 03:01:47;;;;;;;3.22;3.00;;;;;;;8.87;68.39;98042.00;5073050;28;20208;-58
2024/01/06 03:04:13;;;;;;;3.22;2.97;;;;;;;8.41;68.39;97957.50;5073057;28;20181;-58
2024/01/06 03:06:38;;;;;;;4.43;3.33;;;;;;;8.76;69.02;98035.91;5072686;28;20199;-57
2024/01/06 03:09:03;;;;;;;3.10;2.80;;;;;;;8.80;68.97;98042.50;5072802;28;20209;-58
2024/01/06 03:11:29;;;;;;;5.88;3.88;;;;;;;8.27;69.32;97961.00;5072883;28;20173;-58
2024/01/06 03:13:54;;;;;;;5.55;3.80;;;;;;;8.77;69.20;98043.53;5072822;28;20185;-58
2024/01/06 03:16:20;;;;;;;6.13;3.00;;;;;;;8.23;69.59;97944.09;5072123;28;20174;-57
2024/01/06 03:18:46;;;;;;;5.40;3.30;;;;;;;8.50;69.65;97978.34;5072758;28;20220;-57
2024/01/06 03:21:19;;;;;;;3.88;3.05;;;;;;;8.38;68.74;97968.03;5072618;28;20665;-57
2024/01/06 03:23:44;;;;;;;3.08;2.13;;;;;;;8.45;69.27;97982.97;5072577;28;20219;-58
2024/01/06 03:26:09;;;;;;;2.60;2.40;;;;;;;8.83;69.63;98031.97;5072325;28;20173;-57
2024/01/06 03:28:35;;;;;;;2.83;2.38;;;;;;;8.32;69.83;97938.31;5072416;28;20292;-58
2024/01/06 03:31:00;;;;;;;4.30;2.20;;;;;;;8.58;69.61;97980.41;5072186;28;20329;-58
2024/01/06 03:33:25;;;;;;;3.10;2.22;;;;;;;8.77;69.76;98020.31;5072427;28;20177;-58
2024/01/06 03:35:51;;;;;;;2.25;2.03;;;;;;;8.39;69.85;97949.88;5072331;28;20177;-58
2024/01/06 03:38:16;;;;;;;3.42;2.90;;;;;;;8.75;69.99;98021.34;5072321;28;20184;-58
2024/01/06 03:40:42;;;;;;;3.45;2.50;;;;;;;8.68;70.17;97996.91;5072270;28;20170;-58
2024/01/06 03:43:07;;;;;;;3.35;2.40;;;;;;;8.64;70.43;97996.31;5072214;28;20181;-58
2024/01/06 03:45:32;;;;;;;3.38;2.30;;;;;;;8.43;70.15;97971.94;5072223;28;20226;-58
2024/01/06 03:47:58;;;;;;;4.13;2.10;;;;;;;8.80;70.66;98032.19;5071657;28;20201;-57
2024/01/06 03:50:23;;;;;;;3.90;2.35;;;;;;;8.26;70.95;97923.28;5071342;28;20252;-58
2024/01/06 03:52:49;;;;;;;4.40;2.65;;;;;;;8.50;71.07;97980.91;5071839;28;20210;-58
2024/01/06 03:55:16;;;;;;;3.47;2.60;;;;;;;8.36;71.62;97957.81;5071980;28;20173;-58
2024/01/06 03:57:41;;;;;;;3.28;2.65;;;;;;;8.40;71.49;97959.25;5071801;28;20181;-57
2024/01/06 04:00:07;;;;;;;2.80;2.33;;;;;;;8.25;71.48;97924.19;5071698;28;20165;-58
2024/01/06 04:02:33;;;;;;;5.07;2.67;;;;;;;8.71;71.32;98012.16;5071875;28;20230;-57
2024/01/06 04:04:58;;;;;;;3.63;2.65;;;;;;;8.57;71.56;97987.28;5071845;28;20176;-57
2024/01/06 04:07:24;;;;;;;2.95;2.28;;;;;;;8.39;71.69;97943.91;5071809;28;20233;-57
2024/01/06 04:09:49;;;;;;;2.60;2.40;;;;;;;8.32;71.17;97934.94;5071819;28;20593;-58
2024/01/06 04:12:14;;;;;;;3.08;2.40;;;;;;;8.18;68.82;97930.66;5071806;28;20180;-58
2024/01/06 04:14:40;;;;;;;4.03;2.85;;;;;;;8.36;68.88;97956.97;5071727;28;20264;-58
2024/01/06 04:17:05;;;;;;;2.67;2.45;;;;;;;8.17;69.90;97926.44;5071285;28;20662;-57
2024/01/06 04:19:31;;;;;;;4.10;2.60;;;;;;;8.74;69.82;98005.03;5071685;28;20183;-57
2024/01/06 04:21:56;;;;;;;4.00;2.47;;;;;;;8.79;69.38;98002.97;5071906;28;20632;-58
2024/01/06 04:24:22;;;;;;;3.30;3.00;;;;;;;8.27;70.25;97927.50;5071666;28;20177;-57
2024/01/06 04:26:48;;;;;;;4.93;2.75;;;;;;;8.63;70.31;97994.63;5071599;28;20173;-58
2024/01/06 04:29:13;;;;;;;3.92;2.58;;;;;;;8.25;70.37;97921.63;5071447;28;20264;-58
2024/01/06 04:31:40;;;;;;;5.00;3.03;;;;;;;8.82;70.52;98020.84;5071268;28;20177;-57
2024/01/06 04:34:05;;;;;;;2.17;1.98;;;;;;;8.55;67.06;97998.63;5071268;28;20176;-57
2024/01/06 04:36:31;;;;;;;2.00;1.70;;;;;;;8.25;65.66;97956.88;5071175;28;20173;-57
2024/01/06 04:38:56;;;;;;;2.75;1.63;;;;;;;8.62;65.20;98008.44;5071460;28;20233;-57
2024/01/06 04:41:22;;;;;;;1.52;1.42;;;;;;;8.14;64.23;97931.78;5028949;28;20209;-57
2024/01/06 04:43:47;;;;;;;1.73;1.40;;;;;;;8.06;63.06;97925.50;5029056;28;20644;-57
2024/01/06 04:46:12;;;;;;;1.50;1.42;;;;;;;8.18;63.63;97955.59;5009197;28;20277;-57
2024/01/06 04:48:41;;;;;;;1.70;1.60;;;;;;;8.50;63.18;97991.22;5008685;28;20206;-57
2024/01/06 04:51:09;;;;;;;1.98;1.55;;;;;;;8.54;64.37;97982.38;5009240;28;20281;-57
2024/01/06 04:53:38;;;;;;;4.30;1.40;;;;;;;8.29;65.20;97935.13;5009221;28;20175;-57
2024/01/06 04:56:04;;;;;;;1.60;1.50;;;;;;;8.59;66.34;98003.50;4989353;28;20200;-57
2024/01/06 04:58:29;;;;;;;3.08;1.63;;;;;;;8.08;65.51;97914.16;4989556;28;20196;-57
2024/01/06 05:00:54;;;;;;;3.72;3.08;;;;;;;8.63;64.71;98011.88;4989456;28;20306;-57
2024/01/06 05:03:20;;;;;;;2.17;2.08;;;;;;;8.60;65.67;98012.06;4992607;28;20654;-57
2024/01/06 05:05:45;;;;;;;1.98;1.88;;;;;;;8.33;66.68;97970.91;4993391;28;20255;-58
2024/01/06 05:08:11;;;;;;;2.72;1.80;;;;;;;8.38;66.47;97968.84;4993413;28;20206;-57
2024/01/06 05:10:36;;;;;;;2.15;1.95;;;;;;;8.17;67.13;97933.34;4993386;28;20188;-57
2024/01/06 05:13:01;;;;;;;4.20;2.35;;;;;;;8.65;67.00;98013.41;5008664;28;20206;-58
2024/01/06 05:15:27;;;;;;;2.30;2.10;;;;;;;8.19;67.24;97937.47;5012961;28;20689;-58
2024/01/06 05:17:52;;;;;;;2.50;2.03;;;;;;;8.63;67.59;98022.19;5016273;28;20202;-57
2024/01/06 05:20:18;;;;;;;2.88;2.10;;;;;;;8.38;68.27;97968.84;5012854;28;20183;-57
2024/01/06 05:22:43;;;;;;;17.33;7.20;;;;;;;8.53;68.63;97992.78;5012868;28;20210;-57
2024/01/06 05:25:09;;;;;;;21.08;9.77;;;;;;;8.71;68.42;98020.75;5012830;28;20349;-57
2024/01/06 05:27:34;;;;;;;16.80;9.43;;;;;;;8.41;68.68;97978.13;5047894;28;20323;-57
2024/01/06 05:30:00;;;;;;;19.48;10.27;;;;;;;8.77;68.72;98043.53;5074764;28;20214;-57
2024/01/06 05:32:25;;;;;;;12.93;7.40;;;;;;;8.25;69.44;97939.66;5052107;28;20206;-57
2024/01/06 05:34:50;;;;;;;14.63;9.00;;;;;;;8.53;69.44;97993.59;5052266;28;20212;-57
2024/01/06 05:37:16;;;;;;;10.68;7.57;;;;;;;8.22;69.77;97944.19;5052142;28;20182;-57
2024/01/06 05:39:41;;;;;;;8.85;5.70;;;;;;;8.73;70.30;98038.69;5052095;28;20272;-57
2024/01/06 05:42:12;;;;;;;10.07;6.47;;;;;;;8.73;70.00;98033.53;5052442;28;20194;-57
2024/01/06 05:44:37;;;;;;;6.88;4.70;;;;;;;8.68;69.77;98026.09;5052055;28;20240;-57
2024/01/06 05:47:03;;;;;;;4.93;3.65;;;;;;;8.65;69.99;98036.63;5051995;28;20186;-57
2024/01/06 05:49:29;;;;;;;5.93;4.55;;;;;;;8.60;70.63;98022.38;5051793;28;20692;-57
2024/01/06 05:51:54;;;;;;;7.82;5.38;;;;;;;8.66;70.32;98045.16;5051876;28;20182;-57
2024/01/06 05:54:19;;;;;;;6.97;5.32;;;;;;;8.23;71.11;97977.59;5051810;28;20178;-57
2024/01/06 05:56:45;;;;;;;5.75;4.03;;;;;;;8.02;71.30;97950.63;5052158;28;20205;-57
2024/01/06 05:59:10;;;;;;;8.77;4.97;;;;;;;8.47;71.06;98024.97;5051756;28;20193;-57
2024/01/06 06:01:36;;;;;;;20.85;9.60;;;;;;;8.02;71.77;97954.94;5051851;28;20184;-57
2024/01/06 06:04:01;;;;;;;18.67;11.25;;;;;;;8.23;72.04;97989.66;5031611;28;20195;-57
2024/01/06 06:06:27;;;;;;;9.25;6.13;;;;;;;8.50;72.16;98019.59;5031727;28;20186;-57
2024/01/06 06:08:52;;;;;;;5.75;4.43;;;;;;;8.37;72.02;98003.28;5031015;28;20317;-57
2024/01/06 06:11:18;;;;;;;5.32;4.70;;;;;;;8.31;72.55;97998.53;5031753;28;20262;-57
2024/01/06 06:13:44;;;;;;;5.88;3.60;;;;;;;8.61;72.11;98034.31;5030498;28;20661;-57
2024/01/06 06:16:12;;;;;;;6.43;5.35;;;;;;;8.10;71.67;97947.56;5031625;28;20187;-57
2024/01/06 06:18:37;;;;;;;5.32;3.40;;;;;;;8.48;71.60;98011.13;5044984;28;20217;-57
2024/01/06 06:21:03;;;;;;;3.83;2.97;;;;;;;8.30;71.61;97983.16;5051454;28;20178;-57
2024/01/06 06:23:30;;;;;;;5.63;3.75;;;;;;;8.52;72.04;98028.06;5051329;28;20285;-57
2024/01/06 06:25:56;;;;;;;3.17;2.85;;;;;;;8.00;72.15;97938.78;5011448;28;20761;-57
2024/01/06 06:28:21;;;;;;;4.82;3.42;;;;;;;8.07;72.42;97942.59;5011596;28;20301;-57
2024/01/06 06:30:47;;;;;;;5.15;3.67;;;;;;;8.24;73.00;97965.53;5011571;28;20322;-57
2024/01/06 06:33:12;;;;;;;7.72;5.00;;;;;;;8.28;73.46;97978.09;4991735;28;20512;-57
2024/01/06 06:35:38;;;;;;;77.18;31.45;;;;;;;8.23;73.17;97949.25;5005625;28;20282;-57
2024/01/06 06:38:03;;;;;;;45.08;19.00;;;;;;;8.41;73.67;97967.81;5011135;28;20569;-57
2024/01/06 06:40:29;;;;;;;22.80;10.85;;;;;;;8.62;73.95;98013.59;5011527;28;20179;-57
2024/01/06 06:42:55;;;;;;;20.10;11.05;;;;;;;8.30;74.66;97978.00;5011079;28;20721;-57
2024/01/06 06:45:22;;;;;;;20.77;10.52;;;;;;;8.06;75.25;97931.47;5011050;28;20270;-57
2024/01/06 06:47:49;;;;;;;14.98;8.85;;;;;;;8.21;75.54;97934.81;5010987;28;20211;-57
2024/01/06 06:50:18;;;;;;;13.05;5.18;;;;;;;8.64;73.20;97985.16;5010828;28;20183;-57
2024/01/06 06:52:44;;;;;;;37.60;16.67;;;;;;;8.15;73.35;97905.09;5010860;28;20183;-57
2024/01/06 06:55:10;;;;;;;12.05;5.82;;;;;;;8.17;73.81;97913.56;5010984;28;20237;-57
2024/01/06 06:57:36;;;;;;;12.38;5.82;;;;;;;8.43;74.05;97965.94;5010846;28;20672;-57
2024/01/06 07:00:01;;;;;;;19.77;9.43;;;;;;;8.51;75.06;97974.81;5010831;28;20665;-58
2024/01/06 07:02:27;;;;;;;8.68;5.82;;;;;;;8.68;75.12;97991.75;5015502;28;20219;-57
2024/01/06 07:04:53;;;;;;;7.07;5.10;;;;;;;8.64;75.10;97991.16;5050147;28;20551;-57
2024/01/06 07:07:19;;;;;;;11.15;5.20;;;;;;;8.62;73.46;97967.19;5010450;28;20202;-57
2024/01/06 07:09:44;;;;;;;36.53;18.33;;;;;;;8.23;74.22;97904.63;5010543;28;20191;-57
2024/01/06 07:12:09;;;;;;;26.98;14.48;;;;;;;8.47;73.83;97950.19;5010557;28;20593;-57
2024/01/06 07:14:35;;;;;;;53.95;28.02;;;;;;;8.70;73.33;97983.00;5010544;28;20216;-57
2024/01/06 07:17:01;;;;;;;59.03;30.00;;;;;;;8.70;71.95;97972.69;5010363;28;20225;-57
2024/01/06 07:19:26;;;;;;;51.13;28.70;;;;;;;8.71;69.10;97966.59;5010355;28;20225;-57
2024/01/06 07:21:51;;;;;;;51.15;25.25;;;;;;;8.28;69.17;97890.47;5010266;28;20183;-57
2024/01/06 07:24:17;;;;;;;32.42;15.77;;;;;;;8.22;69.79;97883.16;5010326;28;20203;-57
2024/01/06 07:26:43;;;;;;;41.33;19.20;;;;;;;8.53;70.53;97929.16;5010039;28;20225;-57
2024/01/06 07:29:08;;;;;;;45.20;17.33;;;;;;;8.66;70.79;97932.53;5010237;28;20206;-57
2024/01/06 07:31:35;;;;;;;32.00;14.80;;;;;;;9.00;70.92;97993.78;5010105;28;20203;-57
2024/01/06 07:34:00;;;;;;;30.55;14.80;;;;;;;8.68;70.93;97922.94;5010162;28;20199;-57
2024/01/06 07:36:26;;;;;;;19.27;9.73;;;;;;;8.32;70.87;97863.56;5010323;28;20182;-57
2024/01/06 07:38:51;;;;;;;19.10;10.50;;;;;;;8.82;70.92;97934.88;5010085;28;20685;-57
2024/01/06 07:41:17;;;;;;;30.48;14.57;;;;;;;9.01;71.12;97963.63;5010070;28;20179;-57
2024/01/06 07:43:43;;;;;;;36.25;18.75;;;;;;;9.10;71.60;97974.13;5013699;28;20237;-57
2024/01/06 07:46:09;;;;;;;29.58;16.42;;;;;;;8.98;71.75;97949.19;5052210;28;20173;-57
2024/01/06 07:48:35;;;;;;;34.92;17.00;;;;;;;8.88;71.61;97935.28;5051867;28;20217;-57
2024/01/06 07:51:01;;;;;;;36.03;19.58;;;;;;;9.17;72.13;97979.72;4990133;28;20215;-58
2024/01/06 07:53:27;;;;;;;39.78;19.67;;;;;;;8.89;72.15;97926.63;4990227;28;20749;-58
2024/01/06 07:55:52;;;;;;;48.83;24.17;;;;;;;8.69;72.44;97883.31;4990156;28;20188;-58
2024/01/06 07:58:17;;;;;;;49.58;24.55;;;;;;;8.81;72.89;97890.22;4990167;28;20190;-58
2024/01/06 08:00:43;;;;;;;43.47;25.38;;;;;;;9.21;74.04;97939.84;4970473;28;20189;-58
2024/01/06 08:03:08;;;;;;;44.17;23.38;;;;;;;9.30;74.89;97955.53;4970944;28;20188;-58
2024/01/06 08:05:34;;;;;;;41.67;24.17;;;;;;;8.93;75.88;97893.69;4970523;28;20251;-58
2024/01/06 08:07:59;;;;;;;39.85;21.55;;;;;;;9.39;76.03;97983.25;4969783;28;20216;-57
2024/01/06 08:10:24;;;;;;;33.85;20.90;;;;;;;9.43;76.49;97989.84;4970436;28;20193;-58
2024/01/06 08:12:50;;;;;;;38.10;21.73;;;;;;;9.41;76.68;97984.00;4970525;28;20294;-57
2024/01/06 08:15:15;;;;;;;33.80;19.83;;;;;;;8.96;77.08;97908.97;4970473;28;20188;-58
2024/01/06 08:17:41;;;;;;;33.35;19.95;;;;;;;9.03;76.71;97911.00;4976081;28;20816;-58
2024/01/06 08:20:09;;;;;;;31.40;19.13;;;;;;;9.57;76.52;97985.38;4989903;28;20187;-58
2024/01/06 08:22:34;;;;;;;36.90;21.00;;;;;;;9.40;76.56;97946.19;5019352;28;20286;-57
2024/01/06 08:25:00;;;;;;;37.03;21.08;;;;;;;9.63;76.68;97978.97;5048982;28;20170;-57
2024/01/06 08:27:25;;;;;;;34.15;19.60;;;;;;;9.27;76.67;97895.53;5048723;28;20190;-58
2024/01/06 08:29:51;;;;;;;18.58;11.82;;;;;;;9.65;77.59;97959.00;5049323;28;20227;-58
2024/01/06 08:32:16;;;;;;;17.65;12.40;;;;;;;9.98;79.81;97993.56;5065059;28;20213;-58
2024/01/06 08:34:42;;;;;;;16.50;11.23;;;;;;;10.03;81.42;97982.88;5070986;28;20169;-58
2024/01/06 08:37:07;;;;;;;15.82;9.40;;;;;;;10.08;83.59;97975.63;5070759;28;20635;-58
2024/01/06 08:39:33;;;;;;;17.30;10.07;;;;;;;9.76;85.59;97928.06;5028714;28;20187;-58
2024/01/06 08:41:58;;;;;;;20.77;11.10;;;;;;;9.98;86.16;97979.81;5028799;28;20198;-58
2024/01/06 08:44:24;;;;;;;18.27;12.38;;;;;;;9.92;86.63;97959.59;5028799;28;20182;-58
2024/01/06 08:46:50;;;;;;;19.02;11.85;;;;;;;9.68;86.47;97910.53;5028898;28;20194;-58
2024/01/06 08:49:15;;;;;;;24.58;11.05;;;;;;;9.91;86.25;97943.25;5028687;28;20214;-58
2024/01/06 08:51:41;;;;;;;20.02;12.68;;;;;;;9.88;86.18;97940.06;5028724;28;20248;-58
2024/01/06 08:54:06;;;;;;;22.75;14.18;;;;;;;10.15;86.93;97974.28;5028745;28;20194;-58
2024/01/06 08:56:34;;;;;;;35.25;20.77;;;;;;;10.11;86.94;97973.66;5028623;28;20189;-58
2024/01/06 08:58:59;;;;;;;35.47;21.33;;;;;;;9.70;86.67;97887.16;5028720;28;20182;-58
2024/01/06 09:01:25;;;;;;;33.60;22.02;;;;;;;10.25;85.95;97980.38;4995684;28;20194;-58
2024/01/06 09:03:50;;;;;;;33.83;22.75;;;;;;;10.19;85.54;97973.09;5028643;28;20202;-58
2024/01/06 09:06:16;;;;;;;39.55;23.77;;;;;;;10.05;84.45;97931.94;5028511;28;20269;-58
2024/01/06 09:08:41;;;;;;;38.63;25.10;;;;;;;10.27;83.52;97955.28;5028536;28;20202;-58
2024/01/06 09:11:07;;;;;;;41.03;24.73;;;;;;;10.37;82.68;97957.03;5059656;28;20181;-58
2024/01/06 09:13:32;;;;;;;41.45;23.90;;;;;;;10.33;82.63;97957.41;5071118;28;20560;-59
2024/01/06 09:16:02;;;;;;;37.53;23.58;;;;;;;10.25;82.91;97941.59;5070786;28;20188;-59
2024/01/06 09:18:27;;;;;;;43.25;27.50;;;;;;;10.17;82.84;97915.53;5053156;28;20200;-58
2024/01/06 09:20:53;;;;;;;38.60;27.15;;;;;;;10.14;83.18;97907.97;5070933;28;20181;-58
2024/01/06 09:23:20;;;;;;;44.47;27.80;;;;;;;10.44;82.86;97947.88;5070830;28;20260;-57
2024/01/06 09:25:46;;;;;;;43.80;27.42;;;;;;;9.91;82.94;97845.06;5070794;28;20180;-57
2024/01/06 09:28:11;;;;;;;43.88;26.52;;;;;;;10.49;83.15;97934.59;5070738;28;20205;-57
2024/01/06 09:30:39;;;;;;;38.05;20.92;;;;;;;10.31;83.81;97892.03;5070462;28;20559;-57
2024/01/06 09:33:05;;;;;;;30.15;19.70;;;;;;;10.59;84.28;97920.03;5070751;28;20170;-58
2024/01/06 09:35:31;;;;;;;29.17;18.10;;;;;;;10.32;84.77;97871.22;5051686;28;20200;-58
2024/01/06 09:37:57;;;;;;;28.05;16.92;;;;;;;10.64;85.30;97921.34;5048008;28;20181;-58
2024/01/06 09:40:24;;;;;;;27.00;18.48;;;;;;;10.32;85.75;97860.88;5048195;28;20189;-58
2024/01/06 09:42:50;;;;;;;29.45;16.60;;;;;;;10.34;86.40;97860.78;5048222;28;20190;-58
2024/01/06 09:45:16;;;;;;;27.05;15.50;;;;;;;10.37;86.75;97863.13;5048166;28;20735;-58
2024/01/06 09:47:42;;;;;;;24.65;16.90;;;;;;;10.48;87.13;97881.22;5048383;28;20301;-58
2024/01/06 09:50:14;;;;;;;26.65;17.02;;;;;;;10.15;86.77;97811.41;5051902;28;20208;-58
2024/01/06 09:52:43;;;;;;;29.92;19.48;;;;;;;10.42;86.70;97855.84;5051857;28;20676;-58
2024/01/06 09:55:11;;;;;;;28.23;18.33;;;;;;;10.03;87.00;97787.31;5051529;28;20658;-58
2024/01/06 09:57:37;;;;;;;30.35;19.17;;;;;;;9.82;87.14;97739.00;5051624;28;20196;-58
2024/01/06 10:00:04;;;;;;;30.15;19.23;;;;;;;10.68;86.80;97875.34;5050529;28;20186;-58
2024/01/06 10:02:31;;;;;;;39.53;22.20;;;;;;;10.72;86.69;97863.81;5050104;28;20250;-57
2024/01/06 10:04:58;;;;;;;30.38;18.67;;;;;;;10.50;86.21;97820.69;5051605;28;20245;-58
2024/01/06 10:07:26;;;;;;;29.67;18.73;;;;;;;10.22;86.27;97766.06;5051345;28;20212;-57
2024/01/06 10:09:54;;;;;;;37.92;23.80;;;;;;;10.42;86.14;97788.59;5051332;28;20691;-57
2024/01/06 10:12:24;;;;;;;39.63;23.15;;;;;;;10.79;87.06;97844.31;5051387;28;20209;-57
2024/01/06 10:14:49;;;;;;;45.47;22.08;;;;;;;10.88;87.24;97852.16;5051282;28;20676;-57
2024/01/06 10:17:16;;;;;;;32.95;23.23;;;;;;;10.85;87.67;97843.81;5048691;28;20276;-58
2024/01/06 10:19:48;;;;;;;35.05;25.77;;;;;;;10.40;88.18;97772.38;5031299;28;20276;-58
2024/01/06 10:22:13;;;;;;;41.30;25.60;;;;;;;10.76;88.24;97829.84;5030554;28;20273;-58
2024/01/06 10:24:39;;;;;;;41.00;26.85;;;;;;;10.24;89.18;97753.81;5030362;28;20685;-58
2024/01/06 10:27:05;;;;;;;31.75;22.98;;;;;;;10.81;89.35;97839.81;5068050;28;20585;-58
2024/01/06 10:29:30;;;;;;;33.60;21.98;;;;;;;10.81;89.54;97837.22;5071360;28;20558;-58
2024/01/06 10:31:55;;;;;;;39.63;22.80;;;;;;;10.84;89.44;97826.63;5039550;28;20288;-58
2024/01/06 10:34:24;;;;;;;31.70;21.52;;;;;;;10.30;89.43;97740.41;5013385;28;20195;-58
2024/01/06 10:36:51;;;;;;;39.88;26.90;;;;;;;10.85;89.40;97815.34;5022268;28;20217;-57
2024/01/06 10:39:18;;;;;;;52.80;26.17;;;;;;;10.32;89.53;97735.94;5030878;28;20273;-57
2024/01/06 10:41:45;;;;;;;42.90;24.85;;;;;;;10.54;89.85;97772.13;5030833;28;20236;-57
2024/01/06 10:44:11;;;;;;;36.75;23.25;;;;;;;10.68;89.78;97798.53;5030769;28;20290;-57
2024/01/06 10:46:37;;;;;;;32.45;20.95;;;;;;;10.48;90.32;97778.59;5030879;28;20653;-58
2024/01/06 10:49:08;;;;;;;37.95;21.88;;;;;;;10.73;90.82;97814.53;4971715;28;20710;-58
2024/01/06 10:51:34;;;;;;;38.38;21.38;;;;;;;10.43;90.85;97748.84;4971906;28;20271;-57
2024/01/06 10:54:01;;;;;;;33.17;21.25;;;;;;;10.65;90.83;97787.63;4971866;28;20245;-58
2024/01/06 10:56:29;;;;;;;33.35;20.88;;;;;;;10.66;91.37;97786.69;4971844;28;20648;-57
2024/01/06 10:58:56;;;;;;;33.75;22.40;;;;;;;10.20;91.72;97723.97;4971769;28;20189;-58
2024/01/06 11:01:27;;;;;;;37.72;22.20;;;;;;;10.69;91.99;97794.22;4971216;28;20429;-58
2024/01/06 11:03:54;;;;;;;39.85;22.80;;;;;;;10.51;91.93;97747.31;4988886;28;20195;-58
2024/01/06 11:06:20;;;;;;;36.85;22.58;;;;;;;10.65;91.44;97747.06;4988061;28;20199;-58
2024/01/06 11:08:54;;;;;;;37.72;23.02;;;;;;;10.78;91.26;97742.56;4990981;28;20215;-58
2024/01/06 11:11:21;;;;;;;37.20;23.95;;;;;;;10.96;90.54;97748.84;4991086;28;20186;-58
2024/01/06 11:13:47;;;;;;;43.08;25.60;;;;;;;11.05;90.50;97747.28;4990934;28;20674;-58
2024/01/06 11:16:36;;;;;;;46.45;24.27;;;;;;;11.26;89.61;97761.09;4990905;28;20183;-58
2024/01/06 11:19:03;;;;;;;40.10;26.58;;;;;;;10.60;89.01;97637.13;5011135;28;20199;-57
2024/01/06 11:21:33;;;;;;;44.30;26.33;;;;;;;10.94;87.35;97678.28;5052178;28;20177;-58
2024/01/06 11:24:20;;;;;;;37.45;25.00;;;;;;;11.38;86.94;97716.03;5051728;28;20190;-58
2024/01/06 11:26:50;;;;;;;46.65;26.65;;;;;;;11.04;86.40;97673.16;5069864;28;20184;-57